Time;durP1;ratioP1;P1;durP2;ratioP2;P2;SDS_P1;SDS_P2;PMS_P1;PMS_P2;Temp;Humidity;BMP_temperature;BMP_pressure;BME280_temperature;BME280_humidity;BME280_pressure;Samples;Min_cycle;Max_cycle;Signal;HPM_P1;HPM_P2
2022/05/26 00:03:02;;;;;;;;;;;16.00;99.90;;;;;;4851728;29;19917;-84
2022/05/26 00:05:41;;;;;;;;;;;16.00;99.90;;;;;;4848720;29;20015;-84
2022/05/26 00:08:07;;;;;;;;;;;16.00;99.90;;;;;;4845012;29;19942;-85
2022/05/26 00:10:34;;;;;;;;;;;16.00;99.90;;;;;;4849227;29;19922;-84
2022/05/26 00:13:07;;;;;;;;;;;16.00;99.90;;;;;;4847441;29;19983;-84
2022/05/26 00:15:35;;;;;;;;;;;16.00;99.90;;;;;;4864353;29;19916;-85
2022/05/26 00:18:08;;;;;;;;;;;16.00;1.00;;;;;;4846129;29;19917;-85
2022/05/26 00:20:36;;;;;;;;;;;15.90;1.00;;;;;;4845647;29;19924;-84
2022/05/26 00:23:02;;;;;;;;;;;16.00;1.00;;;;;;4848396;29;20354;-84
2022/05/26 00:25:28;;;;;;;;;;;16.00;1.00;;;;;;4851922;29;19920;-85
2022/05/26 00:27:53;;;;;;;;;;;16.00;1.00;;;;;;4844272;29;20341;-84
2022/05/26 00:30:19;;;;;;;;;;;15.90;1.00;;;;;;4849126;29;19916;-84
2022/05/26 00:32:47;;;;;;;;;;;15.90;1.00;;;;;;4838666;29;19966;-84
2022/05/26 00:35:21;;;;;;;;;;;15.90;1.00;;;;;;4852747;29;20301;-85
2022/05/26 00:37:46;;;;;;;;;;;15.90;1.00;;;;;;4848132;29;19924;-84
2022/05/26 00:40:15;;;;;;;;;;;15.90;1.00;;;;;;4842910;29;19916;-84
2022/05/26 00:42:43;;;;;;;;;;;15.90;1.00;;;;;;4852741;29;19924;-85
2022/05/26 00:45:11;;;;;;;;;;;15.90;1.00;;;;;;4846257;29;19924;-85
2022/05/26 00:47:44;;;;;;;;;;;15.90;1.00;;;;;;4860401;29;20365;-84
2022/05/26 00:50:26;;;;;;;;;;;15.90;1.00;;;;;;4842825;29;19923;-84
2022/05/26 00:52:57;;;;;;;;;;;15.90;1.00;;;;;;4846837;29;19916;-84
2022/05/26 00:55:27;;;;;;;;;;;15.90;1.00;;;;;;4851334;29;19916;-84
2022/05/26 00:57:56;;;;;;;;;;;15.90;1.00;;;;;;4852152;29;19999;-84
2022/05/26 01:00:26;;;;;;;;;;;15.80;1.00;;;;;;4859626;29;19919;-84
2022/05/26 01:03:10;;;;;;;;;;;15.80;1.00;;;;;;4848415;29;19916;-84
2022/05/26 01:05:44;;;;;;;;;;;15.80;1.00;;;;;;4865629;29;19928;-84
2022/05/26 01:08:19;;;;;;;;;;;15.80;1.00;;;;;;4847164;29;20298;-84
2022/05/26 01:10:44;;;;;;;;;;;15.80;1.00;;;;;;4846675;29;19917;-84
2022/05/26 01:13:14;;;;;;;;;;;15.80;3.20;;;;;;4850852;29;20005;-84
2022/05/26 01:15:46;;;;;;;;;;;15.80;29.80;;;;;;4847721;29;19943;-85
2022/05/26 01:18:19;;;;;;;;;;;15.80;71.50;;;;;;4843643;29;19989;-84
2022/05/26 01:20:45;;;;;;;;;;;15.80;99.90;;;;;;4849321;29;19924;-84
2022/05/26 01:23:19;;;;;;;;;;;15.80;99.90;;;;;;4849702;29;19921;-84
2022/05/26 01:26:04;;;;;;;;;;;15.80;99.90;;;;;;4846340;29;20011;-84
2022/05/26 01:28:56;;;;;;;;;;;15.80;99.90;;;;;;4840135;29;20063;-84
2022/05/26 01:31:29;;;;;;;;;;;15.80;99.90;;;;;;4834357;29;19963;-84
2022/05/26 01:34:07;;;;;;;;;;;15.80;1.00;;;;;;4852125;29;19949;-84
2022/05/26 01:36:34;;;;;;;;;;;15.80;1.00;;;;;;4851414;29;19917;-85
2022/05/26 01:39:17;;;;;;;;;;;15.70;23.20;;;;;;4850675;29;19924;-84
2022/05/26 01:41:51;;;;;;;;;;;15.70;1.00;;;;;;4844020;29;20337;-84
2022/05/26 01:44:28;;;;;;;;;;;15.70;99.90;;;;;;4847862;29;19917;-84
2022/05/26 01:47:03;;;;;;;;;;;15.60;1.00;;;;;;4847474;29;20391;-84
2022/05/26 01:49:33;;;;;;;;;;;15.70;1.00;;;;;;4846736;29;19917;-84
2022/05/26 01:52:15;;;;;;;;;;;15.60;12.20;;;;;;4848949;29;19958;-85
2022/05/26 01:54:59;;;;;;;;;;;15.60;99.90;;;;;;4847996;29;20469;-84
2022/05/26 01:57:44;;;;;;;;;;;15.60;99.90;;;;;;4862383;29;19917;-84
2022/05/26 02:00:14;;;;;;;;;;;15.60;99.90;;;;;;4846737;29;19940;-85
2022/05/26 02:09:06;;;;;;;;;;;15.50;23.60;;;;;;4836834;29;19916;-84
2022/05/26 02:11:33;;;;;;;;;;;15.50;72.30;;;;;;4848870;29;19924;-84
2022/05/26 02:14:01;;;;;;;;;;;15.50;99.90;;;;;;4864342;29;19924;-85
2022/05/26 02:16:33;;;;;;;;;;;15.50;99.90;;;;;;4848192;29;19942;-84
2022/05/26 02:19:05;;;;;;;;;;;15.50;99.90;;;;;;4849005;29;19923;-84
2022/05/26 02:21:33;;;;;;;;;;;15.50;99.90;;;;;;4847964;29;19920;-85
2022/05/26 02:24:04;;;;;;;;;;;15.50;1.00;;;;;;4849260;29;20317;-85
2022/05/26 02:26:32;;;;;;;;;;;15.50;1.00;;;;;;4844204;29;19920;-85
2022/05/26 02:31:43;;;;;;;;;;;15.50;99.90;;;;;;4851881;29;19941;-84
2022/05/26 02:40:06;;;;;;;;;;;15.40;1.00;;;;;;4847843;29;19933;-85
2022/05/26 02:42:46;;;;;;;;;;;15.40;51.20;;;;;;4849530;29;19916;-85
2022/05/26 02:45:12;;;;;;;;;;;15.40;99.90;;;;;;4854581;29;19909;-84
2022/05/26 02:47:46;;;;;;;;;;;15.40;30.40;;;;;;4845762;29;19924;-84
2022/05/26 02:50:25;;;;;;;;;;;;;;;;;;;;;
2022/05/26 02:52:54;;;;;;;;;;;15.40;99.90;;;;;;4843463;29;20442;-84
2022/05/26 02:58:27;;;;;;;;;;;;;;;;;;;;;
2022/05/26 03:01:21;;;;;;;;;;;15.30;1.00;;;;;;4847021;29;19980;-84
2022/05/26 03:10:20;;;;;;;;;;;;;;;;;;;;;
2022/05/26 03:12:54;;;;;;;;;;;15.20;99.90;;;;;;4839777;29;20003;-85
2022/05/26 03:15:54;;;;;;;;;;;15.20;1.00;;;;;;4849295;29;19916;-85
2022/05/26 03:18:30;;;;;;;;;;;15.20;1.00;;;;;;4842624;29;19988;-84
2022/05/26 03:21:04;;;;;;;;;;;15.10;1.00;;;;;;4860682;29;19921;-84
2022/05/26 03:26:16;;;;;;;;;;;15.20;1.00;;;;;;4847538;29;19927;-85
2022/05/26 03:28:44;;;;;;;;;;;15.10;1.00;;;;;;4843581;29;20015;-83
2022/05/26 03:31:12;;;;;;;;;;;15.10;1.00;;;;;;4844902;29;19916;-85
2022/05/26 03:41:55;;;;;;;;;;;15.10;1.00;;;;;;4846460;29;19923;-85
2022/05/26 03:44:21;;;;;;;;;;;15.10;1.00;;;;;;4847342;29;19923;-85
2022/05/26 03:46:51;;;;;;;;;;;15.10;18.70;;;;;;4861110;29;19972;-84
2022/05/26 03:49:22;;;;;;;;;;;15.10;57.20;;;;;;4846502;29;19920;-85
2022/05/26 03:54:48;;;;;;;;;;;;;;;;;;;;;
2022/05/26 03:58:05;;;;;;;;;;;;;;;;;;;;;
2022/05/26 04:00:25;;;;;;;;;;;15.10;99.90;;;;;;4842750;29;19922;-84
2022/05/26 04:18:08;;;;;;;;;;;15.20;99.90;;;;;;4844848;29;19916;-85
2022/05/26 04:26:58;;;;;;;;;;;15.20;99.90;;;;;;4836902;29;19920;-84
2022/05/26 04:32:45;;;;;;;;;;;15.30;20.90;;;;;;4841124;29;19924;-85
2022/05/26 04:38:19;;;;;;;;;;;15.40;1.00;;;;;;4845923;29;19920;-84
2022/05/26 04:40:47;;;;;;;;;;;15.40;1.00;;;;;;4848479;29;19924;-84
2022/05/26 04:43:15;;;;;;;;;;;15.50;1.00;;;;;;4851532;29;19923;-85
2022/05/26 04:45:54;;;;;;;;;;;;;;;;;;;;;
2022/05/26 04:48:22;;;;;;;;;;;15.50;1.00;;;;;;4843167;29;20003;-84
2022/05/26 04:50:51;;;;;;;;;;;15.60;1.00;;;;;;4854866;29;19924;-84
2022/05/26 04:53:17;;;;;;;;;;;15.60;1.00;;;;;;4849418;29;19920;-85
2022/05/26 04:55:43;;;;;;;;;;;15.70;1.00;;;;;;4851911;29;19941;-85
2022/05/26 04:58:08;;;;;;;;;;;15.70;1.00;;;;;;4844970;29;20004;-85
2022/05/26 05:00:57;;;;;;;;;;;15.80;99.90;;;;;;4848616;29;19923;-85
2022/05/26 05:03:23;;;;;;;;;;;15.80;99.90;;;;;;4850862;29;20381;-85
2022/05/26 05:05:49;;;;;;;;;;;15.80;99.90;;;;;;4867329;29;19927;-84
2022/05/26 05:08:15;;;;;;;;;;;15.80;99.90;;;;;;4846445;29;19916;-84
2022/05/26 05:10:40;;;;;;;;;;;15.90;99.90;;;;;;4851554;29;19916;-85
2022/05/26 05:13:08;;;;;;;;;;;16.10;99.90;;;;;;4855047;29;19941;-85
2022/05/26 05:15:44;;;;;;;;;;;16.30;99.90;;;;;;4848640;29;19917;-85
2022/05/26 05:18:19;;;;;;;;;;;;;;;;;;;;;
2022/05/26 05:20:52;;;;;;;;;;;16.70;99.90;;;;;;4855232;29;19988;-85
2022/05/26 05:35:26;;;;;;;;;;;17.50;1.00;;;;;;4849825;29;19938;-82
2022/05/26 05:38:03;;;;;;;;;;;;;;;;;;;;;
2022/05/26 05:40:39;;;;;;;;;;;;;;;;;;;;;
2022/05/26 05:43:15;;;;;;;;;;;;;;;;;;;;;
2022/05/26 05:48:28;;;;;;;;;;;18.30;1.00;;;;;;4837446;29;19917;-83
2022/05/26 05:50:56;;;;;;;;;;;18.90;99.90;;;;;;4844533;29;19921;-82
2022/05/26 05:53:22;;;;;;;;;;;19.20;1.00;;;;;;4842373;29;19925;-83
2022/05/26 05:55:47;;;;;;;;;;;19.50;1.00;;;;;;4856683;29;19939;-82
2022/05/26 05:58:15;;;;;;;;;;;19.90;99.90;;;;;;4846869;29;19924;-82
2022/05/26 06:00:41;;;;;;;;;;;20.10;99.90;;;;;;4842163;29;19916;-82
2022/05/26 06:03:07;;;;;;;;;;;20.10;99.90;;;;;;4846660;29;19924;-82
2022/05/26 06:05:33;;;;;;;;;;;20.10;99.90;;;;;;4844860;29;20302;-82
2022/05/26 06:07:59;;;;;;;;;;;20.10;99.90;;;;;;4847088;29;19923;-82
2022/05/26 06:10:24;;;;;;;;;;;20.20;99.90;;;;;;4840840;29;19916;-82
2022/05/26 06:12:50;;;;;;;;;;;20.20;99.90;;;;;;4842081;29;19926;-82
2022/05/26 06:15:16;;;;;;;;;;;20.30;99.90;;;;;;4844188;29;19928;-82
2022/05/26 06:17:42;;;;;;;;;;;20.50;99.90;;;;;;4836822;29;19924;-82
2022/05/26 06:20:10;;;;;;;;;;;20.50;99.90;;;;;;4860139;29;19916;-82
2022/05/26 06:22:37;;;;;;;;;;;20.40;99.90;;;;;;4845702;29;19917;-82
2022/05/26 06:25:03;;;;;;;;;;;20.40;99.90;;;;;;4843454;29;19925;-82
2022/05/26 06:30:14;;;;;;;;;;;20.20;99.90;;;;;;4843810;29;20407;-82
2022/05/26 06:38:12;;;;;;;;;;;20.20;99.90;;;;;;4841321;29;20057;-82
2022/05/26 06:40:37;;;;;;;;;;;21.00;99.90;;;;;;4843480;29;19952;-82
2022/05/26 06:43:03;;;;;;;;;;;21.10;99.90;;;;;;4844580;29;19916;-83
2022/05/26 06:45:30;;;;;;;;;;;21.10;99.90;;;;;;4843294;29;19984;-82
2022/05/26 06:47:56;;;;;;;;;;;21.00;99.90;;;;;;4844469;29;20539;-82
2022/05/26 06:50:21;;;;;;;;;;;21.10;99.90;;;;;;4842194;29;19917;-82
2022/05/26 06:52:47;;;;;;;;;;;21.10;99.90;;;;;;4842154;29;19976;-82
2022/05/26 06:55:12;;;;;;;;;;;21.60;99.90;;;;;;4841889;29;19924;-82
2022/05/26 07:00:38;;;;;;;;;;;22.40;99.90;;;;;;4891310;23;20377;-83
2022/05/26 07:09:33;;;;;;;;;;;;;;;;;;;;;
2022/05/26 07:12:50;;;;;;;;;;;;;;;;;;;;;
2022/05/26 07:15:08;;;;;;;;;;;25.80;99.90;;;;;;4860813;29;19920;-85
2022/05/26 07:18:03;;;;;;;;;;;25.50;99.90;;;;;;4859597;29;19924;-85
2022/05/26 07:20:45;;;;;;;;;;;24.30;99.90;;;;;;4858762;29;20391;-85
2022/05/26 07:23:34;;;;;;;;;;;24.00;99.90;;;;;;4856060;29;20621;-85
2022/05/26 07:26:17;;;;;;;;;;;;;;;;;;;;;
2022/05/26 07:45:11;;;;;;;;;;;28.20;99.90;;;;;;5209295;22;25359999;-85
2022/05/26 08:20:22;;;;;;;;;;;38.90;99.90;;;;;;6285888;22;19943;-86
2022/05/26 08:22:57;;;;;;;;;;;37.70;99.90;;;;;;6281900;22;19903;-85
2022/05/26 08:25:30;;;;;;;;;;;33.70;99.90;;;;;;6258266;22;19907;-85
2022/05/26 08:28:33;;;;;;;;;;;;;;;;;;;;;
2022/05/26 08:31:09;;;;;;;;;;;;;;;;;;;;;
2022/05/26 08:34:01;;;;;;;;;;;27.10;99.90;;;;;;6286085;22;19986;-84
2022/05/26 08:37:05;;;;;;;;;;;;;;;;;;;;;
2022/05/26 08:40:00;;;;;;;;;;;24.30;99.90;;;;;;6281861;22;20013;-84
2022/05/26 08:42:44;;;;;;;;;;;;;;;;;;;;;
2022/05/26 08:48:34;;;;;;;;;;;25.80;99.90;;;;;;6269125;22;20246;-85
2022/05/26 12:27:05;;;;;;;;;;;;;;;;;;;;;
2022/05/26 12:38:08;;;;;;;;;;;29.10;99.90;;;;;;6276963;22;19926;-85
2022/05/26 12:47:38;;;;;;;;;;;;;;;;;;;;;
2022/05/26 12:59:58;;;;;;;;;;;;;;;;;;;;;
2022/05/26 13:02:53;;;;;;;;;;;28.20;99.90;;;;;;6285826;22;19927;-82
2022/05/26 13:05:30;;;;;;;;;;;28.70;99.90;;;;;;6286001;22;19907;-82
2022/05/26 13:08:58;;;;;;;;;;;28.40;99.90;;;;;;6282945;22;19939;-83
2022/05/26 13:20:25;;;;;;;;;;;28.30;99.90;;;;;;6197923;23;19904;-83
2022/05/26 13:23:01;;;;;;;;;;;;;;;;;;;;;
2022/05/26 13:28:48;;;;;;;;;;;;;;;;;;;;;
2022/05/26 13:34:01;;;;;;;;;;;28.00;99.90;;;;;;6251604;23;19987;-83
2022/05/26 13:36:34;;;;;;;;;;;27.20;99.90;;;;;;6249780;23;20250;-83
2022/05/26 13:39:23;;;;;;;;;;;26.70;99.90;;;;;;6222992;23;19953;-83
2022/05/26 13:41:51;;;;;;;;;;;26.50;99.90;;;;;;6207887;23;19903;-82
2022/05/26 13:44:26;;;;;;;;;;;26.50;99.90;;;;;;6222948;23;19935;-83
2022/05/26 13:46:52;;;;;;;;;;;26.60;99.90;;;;;;6227483;23;19903;-83
2022/05/26 13:49:20;;;;;;;;;;;26.80;99.90;;;;;;6252990;23;20238;-83
2022/05/26 13:51:50;;;;;;;;;;;26.80;99.90;;;;;;6251256;23;19958;-83
2022/05/26 13:54:31;;;;;;;;;;;26.50;99.90;;;;;;6251203;23;20178;-83
2022/05/26 13:56:59;;;;;;;;;;;26.20;99.90;;;;;;6251058;23;19910;-83
2022/05/26 13:59:24;;;;;;;;;;;26.30;99.90;;;;;;6230035;23;19954;-83
2022/05/26 14:01:51;;;;;;;;;;;26.20;99.90;;;;;;6249232;23;20234;-83
2022/05/26 14:04:22;;;;;;;;;;;25.90;99.90;;;;;;6251266;22;19950;-83
2022/05/26 14:06:47;;;;;;;;;;;25.80;99.90;;;;;;6250823;23;19907;-83
2022/05/26 14:09:30;;;;;;;;;;;25.90;99.90;;;;;;6251089;23;19952;-83
2022/05/26 14:12:03;;;;;;;;;;;25.80;99.90;;;;;;6251038;23;20342;-83
2022/05/26 14:14:39;;;;;;;;;;;25.70;99.90;;;;;;6251618;23;19926;-83
2022/05/26 14:17:07;;;;;;;;;;;25.40;99.90;;;;;;6247875;23;19908;-83
2022/05/26 14:19:45;;;;;;;;;;;25.40;99.90;;;;;;6251029;23;20312;-83
2022/05/26 14:22:11;;;;;;;;;;;25.50;99.90;;;;;;6251024;23;20238;-83
2022/05/26 14:24:38;;;;;;;;;;;25.70;99.90;;;;;;6250567;23;19904;-83
2022/05/26 14:27:12;;;;;;;;;;;25.60;99.90;;;;;;6251224;23;19927;-83
2022/05/26 14:29:38;;;;;;;;;;;25.60;99.90;;;;;;6251864;22;19923;-83
2022/05/26 14:32:12;;;;;;;;;;;25.70;99.90;;;;;;6250041;23;19983;-83
2022/05/26 14:34:39;;;;;;;;;;;26.00;99.90;;;;;;6250748;23;19910;-83
2022/05/26 14:37:05;;;;;;;;;;;25.80;99.90;;;;;;6252310;23;19982;-83
2022/05/26 14:39:31;;;;;;;;;;;25.90;99.90;;;;;;6254817;22;19995;-83
2022/05/26 14:41:58;;;;;;;;;;;25.60;99.90;;;;;;6253533;23;19904;-83
2022/05/26 14:44:23;;;;;;;;;;;25.40;99.90;;;;;;6253096;23;19970;-83
2022/05/26 14:46:49;;;;;;;;;;;25.30;99.90;;;;;;6253368;22;19907;-83
2022/05/26 14:49:15;;;;;;;;;;;25.10;99.90;;;;;;6253256;23;19915;-83
2022/05/26 14:51:42;;;;;;;;;;;25.10;99.90;;;;;;6248254;23;19904;-83
2022/05/26 14:56:52;;;;;;;;;;;25.00;99.90;;;;;;6248704;23;19911;-82
2022/05/26 14:59:18;;;;;;;;;;;24.90;99.90;;;;;;6250830;23;19930;-83
2022/05/26 15:01:43;;;;;;;;;;;24.90;99.90;;;;;;6249852;23;19971;-82
2022/05/26 15:04:09;;;;;;;;;;;24.80;99.90;;;;;;6252190;23;19911;-82
2022/05/26 15:06:41;;;;;;;;;;;24.70;99.90;;;;;;6225059;23;20368;-83
2022/05/26 15:09:14;;;;;;;;;;;24.60;99.90;;;;;;6253995;23;19912;-83
2022/05/26 15:11:41;;;;;;;;;;;24.60;99.90;;;;;;6228041;23;20393;-83
2022/05/26 15:14:07;;;;;;;;;;;24.70;99.90;;;;;;6252626;23;19923;-82
2022/05/26 15:16:32;;;;;;;;;;;24.70;99.90;;;;;;6226840;23;19907;-83
2022/05/26 15:18:58;;;;;;;;;;;24.80;99.90;;;;;;6226831;23;19908;-83
2022/05/26 15:21:24;;;;;;;;;;;24.80;99.90;;;;;;6226244;23;19904;-83
2022/05/26 15:23:49;;;;;;;;;;;24.80;99.90;;;;;;6226493;23;19910;-83
2022/05/26 15:26:15;;;;;;;;;;;24.70;99.90;;;;;;6251496;23;19907;-82
2022/05/26 15:28:47;;;;;;;;;;;24.60;99.90;;;;;;6252165;23;19928;-83
2022/05/26 15:31:12;;;;;;;;;;;24.70;99.90;;;;;;6254775;23;19911;-83
2022/05/26 15:33:38;;;;;;;;;;;24.80;99.90;;;;;;6255260;23;19986;-83
2022/05/26 15:36:05;;;;;;;;;;;24.80;99.90;;;;;;6253992;23;19910;-83
2022/05/26 15:38:34;;;;;;;;;;;24.90;99.90;;;;;;6227603;23;19908;-83
2022/05/26 15:40:59;;;;;;;;;;;24.90;99.90;;;;;;6228223;23;19907;-83
2022/05/26 15:43:24;;;;;;;;;;;24.70;99.90;;;;;;6252270;23;19910;-83
2022/05/26 15:45:50;;;;;;;;;;;24.50;99.90;;;;;;6254014;23;19911;-83
2022/05/26 15:48:15;;;;;;;;;;;24.50;99.90;;;;;;6253352;23;19975;-83
2022/05/26 15:50:41;;;;;;;;;;;24.40;99.90;;;;;;6257585;23;19968;-83
2022/05/26 15:53:06;;;;;;;;;;;24.30;99.90;;;;;;6255631;23;19911;-83
2022/05/26 15:55:32;;;;;;;;;;;24.20;99.90;;;;;;6228502;23;19904;-83
2022/05/26 15:57:58;;;;;;;;;;;24.10;99.90;;;;;;6229326;23;19943;-83
2022/05/26 16:00:25;;;;;;;;;;;24.00;99.90;;;;;;6256550;23;19951;-83
2022/05/26 16:02:51;;;;;;;;;;;24.00;99.90;;;;;;6256565;23;19923;-83
2022/05/26 16:05:18;;;;;;;;;;;24.10;99.90;;;;;;6256388;23;19907;-83
2022/05/26 16:07:44;;;;;;;;;;;24.00;99.90;;;;;;6255656;23;19914;-83
2022/05/26 16:10:10;;;;;;;;;;;23.90;99.90;;;;;;6256574;23;19990;-83
2022/05/26 16:12:36;;;;;;;;;;;23.90;99.90;;;;;;6229904;23;19903;-83
2022/05/26 16:15:05;;;;;;;;;;;23.70;99.90;;;;;;6256098;23;19943;-83
2022/05/26 16:17:30;;;;;;;;;;;23.50;99.90;;;;;;6254532;23;19914;-83
2022/05/26 16:19:56;;;;;;;;;;;23.60;99.90;;;;;;6255665;23;19903;-83
2022/05/26 16:22:22;;;;;;;;;;;23.60;99.90;;;;;;6254549;23;19903;-83
2022/05/26 16:24:48;;;;;;;;;;;23.70;99.90;;;;;;6255736;23;19930;-83
2022/05/26 16:27:13;;;;;;;;;;;23.80;99.90;;;;;;6229417;23;19961;-83
2022/05/26 16:29:39;;;;;;;;;;;23.80;99.90;;;;;;6255477;23;19903;-83
2022/05/26 16:32:04;;;;;;;;;;;23.80;99.90;;;;;;6229297;23;19904;-83
2022/05/26 16:34:30;;;;;;;;;;;23.70;99.90;;;;;;6254919;23;19930;-83
2022/05/26 16:36:56;;;;;;;;;;;23.50;99.90;;;;;;6253280;23;19920;-83
2022/05/26 16:39:22;;;;;;;;;;;23.40;99.90;;;;;;6253899;23;19911;-83
2022/05/26 16:41:48;;;;;;;;;;;23.40;99.90;;;;;;6229058;23;19914;-83
2022/05/26 16:44:14;;;;;;;;;;;23.30;99.90;;;;;;6253886;23;19932;-85
2022/05/26 16:46:39;;;;;;;;;;;23.00;99.90;;;;;;6228893;23;19904;-83
2022/05/26 16:49:05;;;;;;;;;;;22.90;99.90;;;;;;6255170;23;19950;-83
2022/05/26 16:51:34;;;;;;;;;;;22.80;99.90;;;;;;6227564;23;19942;-83
2022/05/26 16:54:00;;;;;;;;;;;22.70;99.90;;;;;;6228017;23;19907;-83
2022/05/26 16:56:25;;;;;;;;;;;22.50;99.90;;;;;;6254817;23;20322;-83
2022/05/26 16:58:52;;;;;;;;;;;22.40;99.90;;;;;;6227598;23;19910;-84
2022/05/26 17:01:18;;;;;;;;;;;22.20;99.90;;;;;;6254860;23;19914;-83
2022/05/26 17:03:43;;;;;;;;;;;22.10;99.90;;;;;;6254779;23;19903;-83
2022/05/26 17:06:09;;;;;;;;;;;22.00;99.90;;;;;;6251100;23;19903;-83
2022/05/26 17:08:35;;;;;;;;;;;22.10;99.90;;;;;;6252995;23;19958;-83
2022/05/26 17:11:01;;;;;;;;;;;22.10;99.90;;;;;;6252845;23;19913;-83
2022/05/26 17:21:44;;;;;;;;;;;22.00;99.90;;;;;;6255393;23;19956;-83
2022/05/26 17:24:10;;;;;;;;;;;22.00;99.90;;;;;;6254397;23;20006;-83
2022/05/26 17:26:38;;;;;;;;;;;22.00;99.90;;;;;;6228281;23;19904;-83
2022/05/26 17:29:04;;;;;;;;;;;22.00;99.90;;;;;;6254535;23;19908;-83
2022/05/26 17:31:30;;;;;;;;;;;22.00;99.90;;;;;;6229103;23;20376;-83
2022/05/26 17:33:55;;;;;;;;;;;21.90;99.90;;;;;;6252160;23;20261;-83
2022/05/26 17:36:23;;;;;;;;;;;21.80;99.90;;;;;;6254304;23;19904;-83
2022/05/26 17:38:49;;;;;;;;;;;21.70;99.90;;;;;;6254919;23;19915;-83
2022/05/26 17:41:35;;;;;;;;;;;21.60;99.90;;;;;;6254398;23;19908;-83
2022/05/26 17:44:14;;;;;;;;;;;21.60;99.90;;;;;;6253381;23;19908;-83
2022/05/26 17:46:39;;;;;;;;;;;21.40;99.90;;;;;;6252790;23;20278;-83
2022/05/26 17:49:09;;;;;;;;;;;21.30;99.90;;;;;;6252317;23;19918;-83
2022/05/26 17:51:35;;;;;;;;;;;21.30;99.90;;;;;;6234287;22;19900;-83
2022/05/26 17:54:01;;;;;;;;;;;21.30;99.90;;;;;;6233212;23;19907;-83
2022/05/26 17:56:26;;;;;;;;;;;21.20;99.90;;;;;;6255367;23;19947;-83
2022/05/26 17:58:53;;;;;;;;;;;21.20;99.90;;;;;;6253951;23;19986;-83
2022/05/26 18:01:22;;;;;;;;;;;21.20;99.90;;;;;;6227858;23;20249;-83
2022/05/26 18:03:55;;;;;;;;;;;21.10;99.90;;;;;;6228374;23;19908;-84
2022/05/26 18:06:21;;;;;;;;;;;21.00;99.90;;;;;;6254760;23;19904;-83
2022/05/26 18:08:46;;;;;;;;;;;21.00;99.90;;;;;;6254577;23;19955;-83
2022/05/26 18:11:12;;;;;;;;;;;21.10;99.90;;;;;;6227589;23;19963;-83
2022/05/26 18:13:38;;;;;;;;;;;21.00;99.90;;;;;;6253699;23;19915;-83
2022/05/26 18:16:12;;;;;;;;;;;21.00;99.90;;;;;;6253920;23;20001;-83
2022/05/26 18:18:55;;;;;;;;;;;21.00;99.90;;;;;;6228536;23;19926;-83
2022/05/26 18:21:26;;;;;;;;;;;20.90;99.90;;;;;;6227432;23;19903;-83
2022/05/26 18:23:52;;;;;;;;;;;20.80;99.90;;;;;;6227509;23;19904;-83
2022/05/26 18:26:17;;;;;;;;;;;20.70;99.90;;;;;;6255339;23;19908;-83
2022/05/26 18:28:42;;;;;;;;;;;20.70;99.90;;;;;;6226788;23;20053;-83
2022/05/26 18:31:09;;;;;;;;;;;20.60;99.90;;;;;;6253201;23;19955;-83
2022/05/26 18:33:35;;;;;;;;;;;20.50;99.90;;;;;;6227669;23;19904;-83
2022/05/26 18:36:00;;;;;;;;;;;20.40;99.90;;;;;;6252839;23;19955;-83
2022/05/26 18:38:27;;;;;;;;;;;20.40;99.90;;;;;;6227277;23;19907;-83
2022/05/26 18:40:53;;;;;;;;;;;20.40;99.90;;;;;;6228437;23;19911;-83
2022/05/26 18:43:18;;;;;;;;;;;20.30;99.90;;;;;;6227718;23;19904;-83
2022/05/26 18:45:49;;;;;;;;;;;20.30;99.90;;;;;;6226911;23;19951;-83
2022/05/26 18:48:16;;;;;;;;;;;20.20;99.90;;;;;;6251535;23;19934;-83
2022/05/26 18:50:43;;;;;;;;;;;20.10;99.90;;;;;;6227312;23;20374;-83
2022/05/26 18:53:09;;;;;;;;;;;20.20;99.90;;;;;;6224983;23;19904;-84
2022/05/26 18:55:41;;;;;;;;;;;20.10;99.90;;;;;;6253400;23;19917;-83
2022/05/26 18:58:07;;;;;;;;;;;20.00;99.90;;;;;;6252787;23;19904;-83
2022/05/26 19:00:33;;;;;;;;;;;19.90;99.90;;;;;;6243719;23;19912;-83
2022/05/26 19:02:58;;;;;;;;;;;19.90;99.90;;;;;;6249555;23;19926;-84
2022/05/26 19:05:24;;;;;;;;;;;19.80;99.90;;;;;;6243706;23;19942;-85
2022/05/26 19:07:49;;;;;;;;;;;19.80;99.90;;;;;;6247077;22;19914;-85
2022/05/26 19:10:18;;;;;;;;;;;19.80;99.90;;;;;;6248430;23;19907;-84
2022/05/26 19:12:47;;;;;;;;;;;19.70;99.90;;;;;;6249868;23;19953;-83
2022/05/26 19:15:13;;;;;;;;;;;19.60;99.90;;;;;;6249623;23;19903;-83
2022/05/26 19:18:05;;;;;;;;;;;19.60;99.90;;;;;;6274533;22;19915;-83
2022/05/26 19:20:24;;;;;;;;;;;19.50;99.90;;;;;;6248240;23;19911;-84
2022/05/26 19:22:49;;;;;;;;;;;19.50;99.90;;;;;;6270454;22;19967;-84
2022/05/26 19:25:15;;;;;;;;;;;19.50;99.90;;;;;;6247698;23;19907;-84
2022/05/26 19:27:43;;;;;;;;;;;19.40;99.90;;;;;;6248337;22;19946;-84
2022/05/26 19:30:10;;;;;;;;;;;19.40;99.90;;;;;;6247360;23;19982;-84
2022/05/26 19:32:35;;;;;;;;;;;19.30;99.90;;;;;;6248173;22;19913;-84
2022/05/26 19:35:01;;;;;;;;;;;19.30;99.90;;;;;;6247412;23;19954;-84
2022/05/26 19:37:28;;;;;;;;;;;19.30;99.90;;;;;;6270452;22;19915;-84
2022/05/26 19:39:53;;;;;;;;;;;19.20;99.90;;;;;;6244493;23;20269;-84
2022/05/26 19:42:30;;;;;;;;;;;19.20;99.90;;;;;;6247078;22;19917;-84
2022/05/26 19:44:56;;;;;;;;;;;19.20;99.90;;;;;;6247546;22;19949;-84
2022/05/26 19:47:23;;;;;;;;;;;19.20;99.90;;;;;;6247060;22;19908;-84
2022/05/26 19:49:49;;;;;;;;;;;19.20;99.90;;;;;;6247399;22;20249;-84
2022/05/26 19:52:15;;;;;;;;;;;19.20;99.90;;;;;;6245821;23;19914;-84
2022/05/26 19:54:40;;;;;;;;;;;19.10;99.90;;;;;;6246211;23;20288;-85
2022/05/26 19:57:06;;;;;;;;;;;19.10;99.90;;;;;;6270584;22;19903;-84
2022/05/26 19:59:34;;;;;;;;;;;19.10;99.90;;;;;;6248155;22;19912;-84
2022/05/26 20:02:01;;;;;;;;;;;19.10;99.90;;;;;;6246071;23;19919;-86
2022/05/26 20:04:27;;;;;;;;;;;19.10;99.90;;;;;;6217676;23;19908;-86
2022/05/26 20:06:53;;;;;;;;;;;19.00;99.90;;;;;;6219092;23;19930;-86
2022/05/26 20:09:20;;;;;;;;;;;19.00;99.90;;;;;;6245131;23;19979;-87
2022/05/26 20:11:48;;;;;;;;;;;18.90;99.90;;;;;;6246896;23;19908;-87
2022/05/26 20:14:17;;;;;;;;;;;18.90;99.90;;;;;;6246922;23;19904;-87
2022/05/26 20:16:44;;;;;;;;;;;18.90;99.90;;;;;;6245844;23;19904;-86
2022/05/26 20:19:09;;;;;;;;;;;18.80;99.90;;;;;;6245969;23;19911;-87
2022/05/26 20:21:35;;;;;;;;;;;18.80;99.90;;;;;;6246325;23;20282;-86
2022/05/26 20:24:00;;;;;;;;;;;18.70;99.90;;;;;;6245927;23;19931;-86
2022/05/26 20:26:28;;;;;;;;;;;18.60;99.90;;;;;;6243393;23;19942;-88
2022/05/26 20:31:38;;;;;;;;;;;18.50;99.90;;;;;;6244845;23;19910;-87
2022/05/26 20:34:04;;;;;;;;;;;18.40;99.90;;;;;;6243392;23;20362;-87
2022/05/26 20:36:30;;;;;;;;;;;18.30;99.90;;;;;;6244004;23;19907;-87
2022/05/26 20:38:58;;;;;;;;;;;18.20;99.90;;;;;;6218807;23;19939;-87
2022/05/26 20:41:24;;;;;;;;;;;18.10;99.90;;;;;;6244959;23;20219;-86
2022/05/26 20:43:50;;;;;;;;;;;18.10;99.90;;;;;;6219435;23;19991;-87
2022/05/26 20:46:15;;;;;;;;;;;17.90;99.90;;;;;;6244473;23;19903;-87
2022/05/26 20:48:42;;;;;;;;;;;17.80;99.90;;;;;;6245181;23;20294;-88
2022/05/26 20:51:08;;;;;;;;;;;17.70;99.90;;;;;;6246220;23;20231;-87
2022/05/26 20:53:34;;;;;;;;;;;17.60;99.90;;;;;;6247224;23;19911;-86
2022/05/26 20:56:03;;;;;;;;;;;17.50;99.90;;;;;;6246620;23;19904;-87
2022/05/26 20:58:29;;;;;;;;;;;17.30;99.90;;;;;;6247225;23;20092;-86
2022/05/26 21:00:54;;;;;;;;;;;17.20;99.90;;;;;;6247514;23;19965;-87
2022/05/26 21:03:20;;;;;;;;;;;17.10;99.90;;;;;;6246873;23;19958;-86
2022/05/26 21:05:46;;;;;;;;;;;17.00;99.90;;;;;;6220138;23;19903;-87
2022/05/26 21:08:16;;;;;;;;;;;16.90;99.90;;;;;;6246576;23;19987;-86
2022/05/26 21:10:41;;;;;;;;;;;16.90;99.90;;;;;;6245795;23;20349;-87
2022/05/26 21:13:07;;;;;;;;;;;16.80;99.90;;;;;;6218573;23;19912;-87
2022/05/26 21:15:33;;;;;;;;;;;16.80;99.90;;;;;;6246679;23;19903;-87
2022/05/26 21:17:59;;;;;;;;;;;16.70;99.90;;;;;;6244127;23;19947;-86
2022/05/26 21:20:26;;;;;;;;;;;16.70;99.90;;;;;;6218281;23;19904;-88
2022/05/26 21:22:52;;;;;;;;;;;16.70;99.90;;;;;;6244109;23;19916;-87
2022/05/26 21:25:18;;;;;;;;;;;16.60;99.90;;;;;;6219146;23;20330;-88
2022/05/26 21:27:44;;;;;;;;;;;16.60;1.00;;;;;;6247395;23;19914;-88
2022/05/26 21:30:10;;;;;;;;;;;16.50;1.00;;;;;;6247544;23;20337;-88
2022/05/26 21:32:36;;;;;;;;;;;16.50;1.00;;;;;;6247558;23;19907;-87
2022/05/26 21:35:03;;;;;;;;;;;16.50;1.00;;;;;;6245911;23;19950;-87
2022/05/26 21:52:52;;;;;;;;;;;16.50;1.00;;;;;;6234732;23;19903;-87
2022/05/26 21:55:19;;;;;;;;;;;16.50;1.00;;;;;;6245864;23;19915;-87
2022/05/26 21:57:45;;;;;;;;;;;16.50;44.10;;;;;;6219936;23;20253;-87
2022/05/26 22:00:16;;;;;;;;;;;16.40;99.90;;;;;;6246451;23;19912;-87
2022/05/26 22:02:43;;;;;;;;;;;16.40;99.90;;;;;;6220281;23;19926;-87
2022/05/26 22:10:40;;;;;;;;;;;16.40;99.90;;;;;;6227397;23;19910;-88
2022/05/26 22:11:00;;;;;;;;;;;16.30;99.90;;;;;;6247853;23;19918;-88
2022/05/26 22:13:26;;;;;;;;;;;16.30;1.00;;;;;;6245354;23;19962;-88
2022/05/26 22:15:51;;;;;;;;;;;16.30;1.00;;;;;;6247325;23;19903;-88
2022/05/26 22:18:25;;;;;;;;;;;16.30;1.00;;;;;;6247114;23;19930;-88